Time,TemperatureF,DewpointF,PressureIn,WindDirection,WindDirectionDegrees,WindSpeedMPH,WindSpeedGustMPH,Humidity,HourlyPrecipIn,Conditions,Clouds,dailyrainin,SoftwareType,DateUTC
2013-09-07 00:13:00,68.0,64.0,29.97,South,191,1.0,2.0,86,0.00,,,0.00,,2013-09-07 05:13:00,
2013-09-07 00:23:00,67.0,63.0,29.97,SSW,193,0.0,2.0,87,0.00,,,0.00,,2013-09-07 05:23:00,
2013-09-07 00:52:00,67.0,63.0,29.96,South,191,0.0,4.0,88,0.00,,,0.00,,2013-09-07 05:52:00,
2013-09-07 01:13:00,68.0,64.0,29.96,South,188,0.0,4.0,88,0.00,,,0.00,,2013-09-07 06:13:00,
2013-09-07 01:21:00,68.0,64.0,29.96,SSW,212,1.0,5.0,87,0.00,,,0.00,,2013-09-07 06:21:00,
2013-09-07 01:52:00,68.0,64.0,29.96,South,181,1.0,2.0,87,0.00,,,0.00,,2013-09-07 06:52:00,
2013-09-07 02:12:00,68.0,64.0,29.96,South,188,0.0,4.0,86,0.00,,,0.00,,2013-09-07 07:12:00,
2013-09-07 02:22:00,68.0,64.0,29.97,SSW,200,0.0,3.0,86,0.00,,,0.00,,2013-09-07 07:22:00,
2013-09-07 02:52:00,68.0,63.0,29.96,SSW,200,0.0,2.0,84,0.00,,,0.00,,2013-09-07 07:52:00,
2013-09-07 03:12:00,68.0,63.0,29.96,SSW,196,0.0,5.0,84,0.00,,,0.00,,2013-09-07 08:12:00,
2013-09-07 03:22:00,67.0,62.0,29.95,SSE,160,0.0,4.0,84,0.00,,,0.00,,2013-09-07 08:22:00,
2013-09-07 03:53:00,66.0,62.0,29.94,South,180,0.0,2.0,86,0.00,,,0.00,,2013-09-07 08:53:00,
2013-09-07 04:12:00,66.0,62.0,29.94,South,181,0.0,4.0,86,0.00,,,0.00,,2013-09-07 09:12:00,
2013-09-07 04:21:00,66.0,62.0,29.94,South,184,0.0,1.0,87,0.00,,,0.00,,2013-09-07 09:21:00,
2013-09-07 04:52:00,66.0,62.0,29.93,SSE,157,0.0,4.0,86,0.00,,,0.00,,2013-09-07 09:52:00,
2013-09-07 05:11:00,67.0,62.0,29.93,South,188,1.0,6.0,85,0.00,,,0.00,,2013-09-07 10:11:00,
2013-09-07 05:21:00,67.0,62.0,29.93,South,190,1.0,4.0,84,0.00,,,0.00,,2013-09-07 10:21:00,
2013-09-07 05:52:00,67.0,62.0,29.93,South,173,0.0,2.0,84,0.00,,,0.00,,2013-09-07 10:52:00,
2013-09-07 06:13:00,67.0,62.0,29.93,South,176,0.0,2.0,84,0.00,,,0.00,,2013-09-07 11:13:00,
2013-09-07 06:23:00,67.0,62.0,29.93,SSE,155,0.0,4.0,84,0.00,,,0.00,,2013-09-07 11:23:00,
2013-09-07 06:52:00,66.0,61.0,29.93,SSE,157,1.0,2.0,85,0.00,,,0.00,,2013-09-07 11:52:00,
2013-09-07 07:12:00,66.0,61.0,29.93,SSE,157,0.0,1.0,85,0.00,,,0.00,,2013-09-07 12:12:00,
2013-09-07 07:22:00,66.0,61.0,29.93,SSE,157,0.0,1.0,85,0.00,,,0.00,,2013-09-07 12:22:00,
2013-09-07 07:52:00,67.0,62.0,29.93,SSW,198,2.0,5.0,85,0.00,,,0.00,,2013-09-07 12:52:00,
2013-09-07 08:12:00,67.0,62.0,29.93,SSW,205,2.0,6.0,85,0.00,,,0.00,,2013-09-07 13:12:00,
2013-09-07 08:21:00,67.0,62.0,29.93,SSW,199,4.0,6.0,84,0.00,,,0.00,,2013-09-07 13:21:00,
2013-09-07 08:52:00,68.0,63.0,29.93,SSW,196,3.0,6.0,84,0.00,,,0.00,,2013-09-07 13:52:00,
2013-09-07 09:11:00,69.0,63.0,29.93,SW,217,3.0,7.0,82,0.00,,,0.00,,2013-09-07 14:11:00,
2013-09-07 09:22:00,70.0,64.0,29.92,South,171,3.0,7.0,81,0.00,,,0.00,,2013-09-07 14:22:00,
2013-09-07 09:52:00,74.0,65.0,29.91,WSW,237,4.0,9.0,74,0.00,,,0.00,,2013-09-07 14:52:00,
2013-09-07 10:23:00,76.0,65.0,29.90,SSW,193,4.0,9.0,70,0.00,,,0.00,,2013-09-07 15:23:00,
2013-09-07 10:54:00,76.0,66.0,29.90,South,169,2.0,5.0,71,0.00,,,0.00,,2013-09-07 15:54:00,
2013-09-07 11:24:00,76.0,67.0,29.90,SSE,159,1.0,2.0,74,0.00,,,0.00,,2013-09-07 16:24:00,
2013-09-07 11:53:00,73.0,68.0,29.91,SSE,157,0.0,1.0,84,0.04,,,0.04,,2013-09-07 16:53:00,
2013-09-07 12:24:00,73.0,69.0,29.90,ENE,71,0.0,4.0,87,0.05,,,0.05,,2013-09-07 17:24:00,
2013-09-07 12:52:00,75.0,70.0,29.89,ENE,61,1.0,5.0,84,0.01,,,0.05,,2013-09-07 17:52:00,
2013-09-07 13:13:00,77.0,71.0,29.89,NE,56,3.0,5.0,82,0.01,,,0.05,,2013-09-07 18:13:00,
2013-09-07 13:22:00,79.0,71.0,29.89,SE,125,2.0,3.0,76,0.00,,,0.05,,2013-09-07 18:22:00,
2013-09-07 13:52:00,80.0,71.0,29.89,ENE,65,2.0,5.0,73,0.00,,,0.05,,2013-09-07 18:52:00,
2013-09-07 14:11:00,81.0,71.0,29.88,East,92,0.0,5.0,72,0.00,,,0.05,,2013-09-07 19:11:00,
2013-09-07 14:22:00,82.0,71.0,29.88,SE,137,2.0,6.0,69,0.00,,,0.05,,2013-09-07 19:22:00,
2013-09-07 14:52:00,84.0,72.0,29.88,SE,129,1.0,5.0,68,0.00,,,0.05,,2013-09-07 19:52:00,
2013-09-07 15:22:00,86.0,71.0,29.87,WNW,303,2.0,7.0,61,0.00,,,0.05,,2013-09-07 20:22:00,
2013-09-07 15:53:00,87.0,71.0,29.87,WSW,256,1.0,4.0,59,0.00,,,0.05,,2013-09-07 20:53:00,
2013-09-07 16:22:00,88.0,71.0,29.88,WSW,246,2.0,5.0,57,0.00,,,0.05,,2013-09-07 21:22:00,
2013-09-07 16:54:00,88.0,71.0,29.87,WNW,294,0.0,4.0,58,0.00,,,0.05,,2013-09-07 21:54:00,
2013-09-07 17:24:00,88.0,71.0,29.87,SW,221,0.0,4.0,58,0.00,,,0.05,,2013-09-07 22:24:00,
2013-09-07 17:53:00,87.0,71.0,29.87,SW,225,0.0,1.0,60,-99.99,,,-99.99,,2013-09-07 22:53:00,
2013-09-07 18:23:00,87.0,72.0,29.87,SW,225,0.0,2.0,62,-99.99,,,-99.99,,2013-09-07 23:23:00,
2013-09-07 18:53:00,86.0,72.0,29.88,SW,221,0.0,1.0,64,0.00,,,-99.99,,2013-09-07 23:53:00,
2013-09-07 19:22:00,83.0,71.0,29.89,SW,221,0.0,0.0,68,0.00,,,-99.99,,2013-09-08 00:22:00,
2013-09-07 19:42:00,82.0,72.0,29.90,SW,221,0.0,1.0,72,0.00,,,-99.99,,2013-09-08 00:42:00,
2013-09-07 19:52:00,80.0,71.0,29.89,SW,221,0.0,1.0,74,0.00,,,-99.99,,2013-09-08 00:52:00,
2013-09-07 20:11:00,79.0,71.0,29.90,SW,221,0.0,1.0,77,0.00,,,-99.99,,2013-09-08 01:11:00,
2013-09-07 20:22:00,78.0,71.0,29.91,East,91,1.0,2.0,80,0.00,,,-99.99,,2013-09-08 01:22:00,
2013-09-07 20:52:00,77.0,71.0,29.93,ENE,69,1.0,1.0,82,0.00,,,-99.99,,2013-09-08 01:52:00,
2013-09-07 21:11:00,76.0,70.0,29.93,North,355,1.0,2.0,82,0.00,,,-99.99,,2013-09-08 02:11:00,
2013-09-07 21:23:00,76.0,70.0,29.93,NNE,17,1.0,5.0,81,0.00,,,-99.99,,2013-09-08 02:23:00,
2013-09-07 21:43:00,75.0,68.0,29.93,NNE,14,2.0,7.0,80,0.00,,,-99.99,,2013-09-08 02:43:00,
2013-09-07 21:52:00,75.0,69.0,29.94,NE,51,2.0,10.0,81,0.00,,,-99.99,,2013-09-08 02:52:00,
2013-09-07 22:23:00,73.0,67.0,29.96,NE,36,2.0,10.0,82,0.00,,,-99.99,,2013-09-08 03:23:00,
2013-09-07 22:54:00,71.0,67.0,29.96,NE,34,2.0,9.0,86,0.00,,,-99.99,,2013-09-08 03:54:00,
2013-09-07 23:02:00,-999.0,-99.9,29.97,ENE,61,3.0,11.0,-999,-99.99,,,-99.99,,2013-09-08 04:02:00,
2013-09-07 23:24:00,71.0,67.0,29.97,ENE,63,2.0,8.0,88,0.00,,,-99.99,,2013-09-08 04:24:00,
2013-09-07 23:54:00,71.0,67.0,29.98,NE,41,3.0,9.0,88,0.00,,,-99.99,,2013-09-08 04:54:00,